Terminal Aerodrome Forecast
Issued by NWS

Home | Current Version | Previous Version | Graphics & Text | Print | Product List | Glossary On
Versions: 1 2 3 4 5 6 7 8 9 10 11 12 13 14 15 16 17 18 19 20 21
000
FTUS43 KBIS 240400 AAA
TAFDIK
TAF AMD
KDIK 240419Z 2404/2424 32013G20KT P6SM FEW020
     FM241000 32013KT P6SM SCT050
     FM241400 33011KT P6SM SCT200
     FM242000 30011KT P6SM BKN029=

USA.gov is the U.S. government's official web portal to all federal, state and local government web resources and services.